Time;durP1;ratioP1;P1;durP2;ratioP2;P2;SDS_P1;SDS_P2;PMS_P1;PMS_P2;Temp;Humidity;BMP_temperature;BMP_pressure;BME280_temperature;BME280_humidity;BME280_pressure;Samples;Min_cycle;Max_cycle;Signal;HPM_P1;HPM_P2
2022/07/05 00:00:17;;;;;;;4.07;2.37;;;;;;;23.24;53.31;99578.50;5093826;28;20208;-69
2022/07/05 00:02:44;;;;;;;3.90;1.83;;;;;;;23.41;52.81;99577.06;5093870;28;20206;-69
2022/07/05 00:05:10;;;;;;;2.43;2.23;;;;;;;23.55;52.27;99578.09;5094135;28;20192;-69
2022/07/05 00:07:38;;;;;;;7.27;2.10;;;;;;;23.62;52.06;99583.22;5094060;28;20198;-69
2022/07/05 00:10:06;;;;;;;7.57;2.50;;;;;;;23.65;51.94;99583.47;5093888;28;20247;-69
2022/07/05 00:12:33;;;;;;;3.77;1.93;;;;;;;23.65;51.80;99583.47;5094226;28;20252;-69
2022/07/05 00:15:00;;;;;;;2.27;2.00;;;;;;;;;;5093413;28;20193;-69
2022/07/05 00:17:27;;;;;;;2.20;1.97;;;;;;;23.39;52.89;99576.53;5093787;28;20269;-69
2022/07/05 00:19:54;;;;;;;3.47;2.00;;;;;;;23.53;52.54;99582.97;5093777;28;20194;-69
2022/07/05 00:22:20;;;;;;;4.60;2.17;;;;;;;23.58;52.72;99577.53;5093785;28;20250;-69
2022/07/05 00:24:50;;;;;;;6.13;2.20;;;;;;;23.43;53.08;99574.06;5093250;28;20201;-70
2022/07/05 00:27:17;;;;;;;4.43;1.77;;;;;;;23.57;52.87;99575.09;5093329;28;20672;-69
2022/07/05 00:29:44;;;;;;;5.70;1.97;;;;;;;23.49;52.98;99579.19;5093697;28;20267;-70
2022/07/05 00:32:10;;;;;;;2.83;2.03;;;;;;;23.54;52.99;99576.47;5093445;28;20225;-70
2022/07/05 00:34:37;;;;;;;4.23;2.13;;;;;;;23.63;52.70;99574.81;5093143;28;20248;-71
2022/07/05 00:37:04;;;;;;;4.93;2.10;;;;;;;23.68;52.66;99568.56;5092951;28;20203;-70
2022/07/05 00:39:31;;;;;;;4.10;2.10;;;;;;;23.77;52.58;99564.94;5092836;28;20194;-70
2022/07/05 00:42:00;;;;;;;2.00;1.90;;;;;;;23.79;52.42;99554.63;5092810;28;20230;-70
2022/07/05 00:44:32;;;;;;;3.97;2.13;;;;;;;23.84;52.28;99557.31;5092735;28;20658;-70
2022/07/05 00:46:59;;;;;;;3.67;2.43;;;;;;;23.85;52.36;99550.78;5093185;28;20243;-70
2022/07/05 00:49:26;;;;;;;3.70;2.70;;;;;;;23.78;52.70;99549.50;5093261;28;20194;-70
2022/07/05 00:51:53;;;;;;;2.53;2.33;;;;;;;23.79;52.54;99554.63;5092782;28;20229;-71
2022/07/05 00:54:20;;;;;;;4.33;2.53;;;;;;;23.90;52.29;99549.97;5092778;28;20193;-69
2022/07/05 00:56:47;;;;;;;2.80;2.53;;;;;;;23.99;52.28;99540.97;5092630;28;20691;-69
2022/07/05 00:59:15;;;;;;;2.60;2.40;;;;;;;24.07;52.34;99542.28;5093476;28;20572;-70
2022/07/05 01:01:42;;;;;;;5.10;2.60;;;;;;;24.22;52.12;99537.53;5092689;28;20727;-69
2022/07/05 01:04:09;;;;;;;2.77;2.23;;;;;;;24.45;51.78;99542.25;5092598;28;20203;-70
2022/07/05 01:06:36;;;;;;;6.63;2.23;;;;;;;24.64;50.84;99548.63;5092456;28;20195;-71
2022/07/05 01:09:03;;;;;;;3.73;2.30;;;;;;;24.77;50.54;99544.41;5092600;28;20191;-70
2022/07/05 01:11:30;;;;;;;2.80;2.60;;;;;;;24.91;50.36;99548.09;5092429;28;20217;-70
2022/07/05 01:13:59;;;;;;;5.00;2.47;;;;;;;24.94;49.86;99542.88;5092749;28;20282;-70
2022/07/05 01:16:27;;;;;;;4.10;3.23;;;;;;;24.89;49.83;99540.22;5092756;28;20199;-70
2022/07/05 01:18:55;;;;;;;3.87;2.50;;;;;;;24.91;49.63;99538.03;5092707;28;20199;-69
2022/07/05 01:21:24;;;;;;;3.77;2.60;;;;;;;24.93;49.76;99541.28;5092624;28;20252;-69
2022/07/05 01:23:52;;;;;;;3.30;2.60;;;;;;;25.06;49.17;99533.53;5092653;28;20622;-69
2022/07/05 01:26:19;;;;;;;3.83;2.33;;;;;;;25.13;48.81;99539.41;5092148;28;20203;-69
2022/07/05 01:28:46;;;;;;;2.60;2.40;;;;;;;25.21;48.23;99525.19;5092799;28;20197;-69
2022/07/05 01:31:12;;;;;;;3.73;2.63;;;;;;;25.23;48.87;99528.44;5092086;28;20702;-70
2022/07/05 01:33:39;;;;;;;4.07;2.33;;;;;;;25.14;48.66;99530.97;5092191;28;20206;-69
2022/07/05 01:36:07;;;;;;;3.77;2.83;;;;;;;25.11;49.02;99528.03;5091997;28;20548;-70
2022/07/05 01:38:34;;;;;;;7.70;2.80;;;;;;;25.21;48.72;99530.63;5092169;28;20621;-69
2022/07/05 01:41:02;;;;;;;7.93;2.60;;;;;;;25.32;48.13;99524.00;5091779;28;20682;-69
2022/07/05 01:43:29;;;;;;;3.13;2.23;;;;;;;25.28;47.89;99521.06;5092099;28;20621;-69
2022/07/05 01:45:57;;;;;;;3.67;2.83;;;;;;;25.22;48.17;99516.72;5092211;28;20199;-69
2022/07/05 01:48:24;;;;;;;2.77;2.60;;;;;;;25.08;49.04;99522.06;5092304;28;20199;-69
2022/07/05 01:50:54;;;;;;;4.30;2.60;;;;;;;24.98;49.14;99524.91;5091964;28;20268;-69
2022/07/05 01:53:24;;;;;;;6.53;2.97;;;;;;;25.04;49.22;99531.88;5092113;28;20190;-69
2022/07/05 01:55:51;;;;;;;2.57;2.30;;;;;;;25.19;49.34;99527.41;5091756;28;20248;-70
2022/07/05 01:58:19;;;;;;;5.17;3.03;;;;;;;25.25;48.45;99531.66;5092220;28;20191;-70
2022/07/05 02:00:48;;;;;;;3.37;2.70;;;;;;;25.26;48.89;99538.72;5092258;28;20259;-70
2022/07/05 02:03:15;;;;;;;6.43;2.80;;;;;;;25.40;49.14;99539.66;5091866;28;20228;-70
2022/07/05 02:05:43;;;;;;;5.47;2.80;;;;;;;25.42;48.54;99542.91;5091733;28;20195;-69
2022/07/05 02:08:10;;;;;;;4.30;2.83;;;;;;;25.54;48.36;99540.56;5092186;28;20191;-69
2022/07/05 02:10:38;;;;;;;6.13;3.13;;;;;;;25.58;47.48;99541.59;5091720;28;20252;-69
2022/07/05 02:13:05;;;;;;;5.53;2.67;;;;;;;25.55;47.56;99537.56;5091781;28;20198;-70
2022/07/05 02:15:34;;;;;;;4.93;3.13;;;;;;;25.54;47.84;99546.00;5091954;28;20244;-69
2022/07/05 02:18:02;;;;;;;3.00;2.70;;;;;;;25.48;47.69;99558.06;5092070;28;20202;-70
2022/07/05 02:20:29;;;;;;;5.87;3.37;;;;;;;25.41;47.43;99568.47;5091993;28;20195;-70
2022/07/05 02:22:56;;;;;;;6.17;3.07;;;;;;;25.37;48.13;99570.16;5091701;28;20671;-70
2022/07/05 02:25:23;;;;;;;3.37;3.10;;;;;;;25.38;48.26;99558.19;5091533;28;20244;-70
2022/07/05 02:27:51;;;;;;;7.97;2.73;;;;;;;25.34;47.36;99552.53;5092108;28;20198;-70
2022/07/05 02:30:17;;;;;;;3.60;2.87;;;;;;;25.16;47.71;99549.72;5091494;28;20655;-70
2022/07/05 02:32:46;;;;;;;2.97;2.87;;;;;;;24.98;48.88;99549.38;5091910;28;20219;-70
2022/07/05 02:35:13;;;;;;;3.67;2.87;;;;;;;24.91;48.26;99550.81;5091375;28;20662;-69
2022/07/05 02:37:41;;;;;;;9.03;2.97;;;;;;;24.87;48.95;99553.28;5092235;28;20195;-69
2022/07/05 02:40:08;;;;;;;3.60;2.80;;;;;;;24.85;48.74;99563.66;5091234;28;20199;-69
2022/07/05 02:42:35;;;;;;;10.40;3.03;;;;;;;24.59;48.82;99562.22;5092017;28;20767;-69
2022/07/05 02:45:02;;;;;;;3.17;2.97;;;;;;;24.41;48.95;99553.94;5091356;28;20199;-69
2022/07/05 02:47:31;;;;;;;6.47;2.60;;;;;;;24.20;49.43;99542.47;5092066;28;20232;-69
2022/07/05 02:49:59;;;;;;;5.57;3.10;;;;;;;24.06;50.32;99556.94;5091379;28;20329;-69
2022/07/05 02:52:26;;;;;;;5.97;3.00;;;;;;;23.87;50.90;99561.38;5091377;28;20230;-69
2022/07/05 02:54:53;;;;;;;4.63;3.20;;;;;;;23.57;52.00;99564.25;5091282;28;20193;-70
2022/07/05 02:57:19;;;;;;;4.07;3.50;;;;;;;23.20;53.45;99563.88;5091659;28;20193;-70
2022/07/05 02:59:46;;;;;;;7.87;3.67;;;;;;;23.15;53.70;99558.44;5091565;28;20199;-69
2022/07/05 03:02:13;;;;;;;7.00;3.70;;;;;;;23.11;54.72;99558.16;5091313;28;20562;-70
2022/07/05 03:04:39;;;;;;;3.43;3.10;;;;;;;23.12;54.58;99562.47;5090930;28;20216;-70
2022/07/05 03:07:08;;;;;;;4.47;3.20;;;;;;;22.94;55.01;99562.25;5093826;28;20624;-70
2022/07/05 03:09:34;;;;;;;5.07;3.60;;;;;;;22.80;56.30;99559.31;5094901;28;20192;-69
2022/07/05 03:12:01;;;;;;;4.80;3.50;;;;;;;22.99;55.55;99563.06;5095069;28;20275;-70
2022/07/05 03:14:28;;;;;;;4.50;3.30;;;;;;;23.04;55.33;99565.78;5094643;28;20196;-70
2022/07/05 03:16:54;;;;;;;5.10;3.10;;;;;;;23.03;55.59;99564.13;5094939;28;20352;-70
2022/07/05 03:19:21;;;;;;;7.13;3.57;;;;;;;23.11;55.32;99566.28;5094599;28;20200;-71
2022/07/05 03:21:48;;;;;;;6.33;3.67;;;;;;;23.09;55.41;99563.06;5094648;28;20201;-70
2022/07/05 03:24:16;;;;;;;7.97;3.33;;;;;;;23.20;55.89;99570.06;5095008;28;20197;-72
2022/07/05 03:26:43;;;;;;;5.37;3.30;;;;;;;23.40;54.99;99578.13;5094694;28;20273;-70
2022/07/05 03:29:09;;;;;;;4.53;3.40;;;;;;;23.55;54.46;99575.38;5094764;28;20190;-71
2022/07/05 03:31:36;;;;;;;3.43;3.13;;;;;;;23.76;54.37;99563.34;5094841;28;20231;-70
2022/07/05 03:34:03;;;;;;;7.60;3.30;;;;;;;24.04;53.69;99564.53;5094383;28;20242;-71
2022/07/05 03:36:30;;;;;;;8.93;3.73;;;;;;;24.20;53.26;99564.19;5094460;28;20325;-72
2022/07/05 03:38:57;;;;;;;5.97;2.83;;;;;;;24.38;52.85;99559.97;5094597;28;20198;-70
2022/07/05 03:41:25;;;;;;;5.10;3.20;;;;;;;24.67;51.71;99569.78;5094245;28;20283;-70
2022/07/05 03:43:52;;;;;;;5.20;3.60;;;;;;;24.87;51.17;99564.16;5094510;28;20268;-69
2022/07/05 03:46:18;;;;;;;4.33;3.27;;;;;;;25.00;51.22;99563.47;5093787;28;20194;-70
2022/07/05 03:48:45;;;;;;;14.53;4.33;;;;;;;25.00;51.53;99558.03;5094210;28;20251;-69
2022/07/05 03:51:12;;;;;;;8.57;3.83;;;;;;;25.02;50.70;99560.47;5093872;28;20693;-70
2022/07/05 03:53:39;;;;;;;5.27;3.87;;;;;;;25.04;50.94;99563.72;5093788;28;20241;-69
2022/07/05 03:56:05;;;;;;;6.37;3.90;;;;;;;24.98;51.44;99564.06;5093935;28;20199;-69
2022/07/05 03:58:33;;;;;;;6.10;3.27;;;;;;;25.03;51.46;99557.47;5094026;28;20191;-69
2022/07/05 04:01:00;;;;;;;3.83;3.47;;;;;;;25.17;51.26;99560.31;5093986;28;20200;-69
2022/07/05 04:03:27;;;;;;;5.87;3.53;;;;;;;25.40;50.27;99559.53;5093748;28;20570;-69
2022/07/05 04:05:54;;;;;;;3.80;3.30;;;;;;;25.64;49.98;99562.22;5093440;28;20221;-70
2022/07/05 04:08:22;;;;;;;7.40;3.80;;;;;;;26.03;48.76;99562.78;5094025;28;20252;-70
2022/07/05 04:10:48;;;;;;;3.83;3.50;;;;;;;26.56;47.94;99550.47;5094556;28;20202;-70
2022/07/05 04:13:15;;;;;;;5.83;3.53;;;;;;;27.42;45.42;99556.00;5093704;28;20219;-70
2022/07/05 04:15:43;;;;;;;3.67;3.37;;;;;;;28.18;43.22;99554.03;5093303;28;20654;-71
2022/07/05 04:18:10;;;;;;;9.27;4.00;;;;;;;28.97;41.32;99560.53;5093273;28;20545;-70
2022/07/05 04:20:37;;;;;;;5.10;3.30;;;;;;;29.62;38.68;99549.69;5093605;28;20199;-70
2022/07/05 04:23:04;;;;;;;3.30;3.00;;;;;;;30.13;37.34;99550.56;5093377;28;20663;-70
2022/07/05 04:25:30;;;;;;;9.80;3.60;;;;;;;30.56;35.77;99558.78;5093075;28;20195;-69
2022/07/05 04:27:57;;;;;;;4.47;3.40;;;;;;;30.80;36.14;99554.41;5093168;28;20192;-70
2022/07/05 04:30:26;;;;;;;4.70;3.67;;;;;;;31.24;34.78;99551.19;5093534;28;20724;-70
2022/07/05 04:32:55;;;;;;;5.40;3.10;;;;;;;31.52;34.25;99552.34;5092978;28;20720;-69
2022/07/05 04:35:22;;;;;;;8.80;2.90;;;;;;;31.90;33.84;99544.88;5093374;28;20195;-70
2022/07/05 04:37:50;;;;;;;8.20;3.27;;;;;;;32.35;32.75;99545.81;5092928;28;20187;-69
2022/07/05 04:40:16;;;;;;;6.57;3.30;;;;;;;32.78;32.10;99548.09;5092603;28;20671;-70
2022/07/05 04:42:43;;;;;;;7.30;3.43;;;;;;;33.21;31.68;99546.50;5093139;28;20231;-69
2022/07/05 04:45:10;;;;;;;6.23;3.37;;;;;;;33.71;31.06;99548.09;5092457;28;20662;-69
2022/07/05 04:47:37;;;;;;;3.80;3.00;;;;;;;33.60;30.71;99552.47;5093447;28;20244;-69
2022/07/05 04:50:07;;;;;;;7.30;3.23;;;;;;;33.64;30.23;99559.69;5092777;28;20195;-68
2022/07/05 04:52:34;;;;;;;6.67;3.00;;;;;;;33.69;30.49;99564.16;5092621;28;20695;-70
2022/07/05 04:55:00;;;;;;;7.97;3.10;;;;;;;33.94;30.12;99563.00;5092439;28;20260;-69
2022/07/05 04:57:27;;;;;;;14.30;3.28;;;;;;;34.19;29.91;99559.03;5092653;28;20195;-69
2022/07/05 04:59:54;;;;;;;3.85;3.25;;;;;;;34.46;29.41;99561.03;5092808;28;20199;-69
2022/07/05 05:02:20;;;;;;;8.77;3.35;;;;;;;34.47;29.43;99566.22;5092510;28;20252;-69
2022/07/05 05:04:47;;;;;;;3.92;1.80;;;;;;;34.73;30.14;99557.44;5092615;28;20256;-67
2022/07/05 05:07:15;;;;;;;5.40;2.70;;;;;;;34.69;29.24;99551.00;5092595;28;20191;-65
2022/07/05 05:09:42;;;;;;;4.95;2.95;;;;;;;34.69;29.33;99557.34;5092335;28;20662;-65
2022/07/05 05:12:09;;;;;;;7.07;2.90;;;;;;;34.80;29.18;99563.19;5092825;28;20226;-65
2022/07/05 05:14:36;;;;;;;4.35;3.15;;;;;;;35.17;28.33;99561.78;5092629;28;20261;-66
2022/07/05 05:17:03;;;;;;;4.57;3.25;;;;;;;35.73;27.74;99568.72;5092056;28;20194;-66
2022/07/05 05:19:30;;;;;;;8.52;2.97;;;;;;;35.36;28.29;99576.50;5091913;28;20212;-67
2022/07/05 05:21:57;;;;;;;8.13;2.83;;;;;;;35.47;27.91;99576.75;5092499;28;20217;-67
2022/07/05 05:24:25;;;;;;;6.97;3.13;;;;;;;35.57;27.88;99581.75;5091009;28;20256;-67
2022/07/05 05:26:51;;;;;;;4.00;2.65;;;;;;;35.49;28.03;99585.50;5090988;28;20732;-65
2022/07/05 05:29:18;;;;;;;5.40;2.42;;;;;;;35.82;27.40;99594.22;5091318;28;20199;-65
2022/07/05 05:31:45;;;;;;;7.20;3.17;;;;;;;35.60;28.00;99589.34;5084186;28;20242;-66
2022/07/05 05:34:12;;;;;;;9.75;3.00;;;;;;;35.60;28.08;99586.59;5091582;28;20191;-65
2022/07/05 05:36:39;;;;;;;5.50;2.67;;;;;;;35.46;28.43;99580.69;5091263;28;20629;-66
2022/07/05 05:39:06;;;;;;;9.95;3.00;;;;;;;35.45;28.17;99590.16;5092562;28;20244;-65
2022/07/05 05:41:34;;;;;;;5.25;3.05;;;;;;;35.50;28.24;99582.41;5092162;28;20222;-65
2022/07/05 05:44:00;;;;;;;14.25;3.95;;;;;;;35.44;28.19;99578.28;5092197;28;20199;-65
2022/07/05 05:46:27;;;;;;;6.07;2.67;;;;;;;35.17;28.76;99595.75;5091872;28;20615;-65
2022/07/05 05:48:54;;;;;;;3.15;2.42;;;;;;;35.15;28.68;99591.75;5091630;28;20187;-65
2022/07/05 05:51:21;;;;;;;6.13;3.08;;;;;;;35.12;28.66;99593.25;5091962;28;20195;-65
2022/07/05 05:53:48;;;;;;;6.32;2.95;;;;;;;35.27;28.59;99591.66;5091827;28;20722;-65
2022/07/05 05:56:14;;;;;;;3.10;2.80;;;;;;;35.19;28.30;99593.41;5092228;28;20253;-66
2022/07/05 05:58:42;;;;;;;9.80;2.90;;;;;;;34.83;29.07;99596.41;5092073;28;20267;-65
2022/07/05 06:01:09;;;;;;;9.55;2.80;;;;;;;34.78;29.08;99598.59;5088472;28;20636;-65
2022/07/05 06:03:36;;;;;;;4.88;2.97;;;;;;;34.71;29.51;99592.88;5090211;28;20199;-64
2022/07/05 06:06:03;;;;;;;7.70;2.85;;;;;;;34.67;29.61;99595.56;5091176;28;20755;-65
2022/07/05 06:08:29;;;;;;;10.48;2.40;;;;;;;34.70;29.06;99594.84;5091571;28;20195;-63
2022/07/05 06:10:56;;;;;;;7.03;2.50;;;;;;;34.89;29.12;99583.13;5092046;28;20191;-64
2022/07/05 06:13:23;;;;;;;6.53;2.35;;;;;;;35.00;28.52;99582.28;5091465;28;20702;-63
2022/07/05 06:15:51;;;;;;;6.05;2.70;;;;;;;35.02;28.41;99584.69;5091602;28;20255;-63
2022/07/05 06:18:18;;;;;;;4.00;2.28;;;;;;;34.92;28.54;99576.91;5091657;28;20268;-63
2022/07/05 06:20:45;;;;;;;5.65;2.60;;;;;;;35.00;28.16;99574.00;5091523;28;20712;-63
2022/07/05 06:23:12;;;;;;;5.53;2.30;;;;;;;35.01;28.34;99574.78;5091071;28;20650;-63
2022/07/05 06:25:39;;;;;;;8.68;2.53;;;;;;;35.27;28.12;99569.56;5091007;28;20199;-64
2022/07/05 06:28:08;;;;;;;8.35;2.95;;;;;;;35.26;28.18;99565.16;5091331;28;20663;-64
2022/07/05 06:30:37;;;;;;;6.82;2.85;;;;;;;35.40;28.13;99557.28;5091589;28;20268;-64
2022/07/05 06:33:05;;;;;;;10.43;2.97;;;;;;;35.62;27.21;99564.91;5091149;28;20227;-64
2022/07/05 06:35:32;;;;;;;2.63;2.42;;;;;;;35.77;27.39;99564.09;5091252;28;20686;-64
2022/07/05 06:38:00;;;;;;;3.25;2.55;;;;;;;35.65;27.76;99558.66;5091479;28;20199;-64
2022/07/05 06:40:29;;;;;;;6.63;2.42;;;;;;;35.46;27.34;99558.59;5091348;28;20256;-65
2022/07/05 06:42:58;;;;;;;5.75;2.60;;;;;;;35.42;27.52;99555.75;5095691;28;20191;-66
2022/07/05 06:45:25;;;;;;;13.63;2.80;;;;;;;35.28;27.87;99560.91;5095023;28;20191;-65
2022/07/05 06:47:56;;;;;;;6.47;2.90;;;;;;;35.41;28.29;99545.03;5095145;28;20264;-66
2022/07/05 06:50:24;;;;;;;7.15;2.28;;;;;;;35.42;28.07;99546.66;5095045;28;20199;-66
2022/07/05 06:52:51;;;;;;;3.25;2.55;;;;;;;35.26;27.51;99554.13;5094079;28;20227;-67
2022/07/05 06:55:18;;;;;;;8.13;2.45;;;;;;;35.43;27.38;99542.75;5094787;28;20207;-66
2022/07/05 06:57:45;;;;;;;6.78;2.50;;;;;;;35.45;27.37;99540.41;5095057;28;20685;-66
2022/07/05 07:00:14;;;;;;;6.50;2.50;;;;;;;35.34;28.07;99544.88;5094951;28;20282;-66
2022/07/05 07:02:40;;;;;;;5.35;2.42;;;;;;;35.46;27.45;99542.00;5094879;28;20199;-67
2022/07/05 07:05:09;;;;;;;2.78;2.47;;;;;;;35.47;27.82;99530.59;5093895;28;20195;-67
2022/07/05 07:10:21;;;;;;;7.18;2.65;;;;;;;35.71;26.52;99527.59;5074630;28;20180;-66
2022/07/05 07:12:48;;;;;;;3.28;2.50;;;;;;;36.01;25.93;99525.13;5074765;28;20224;-67
2022/07/05 07:15:14;;;;;;;3.65;2.17;;;;;;;36.14;26.04;99512.75;5074525;28;20268;-66
2022/07/05 07:17:41;;;;;;;6.80;2.42;;;;;;;36.03;25.93;99515.31;5074716;28;20192;-66
2022/07/05 07:20:09;;;;;;;11.43;2.63;;;;;;;36.00;26.66;99523.50;5074061;28;20192;-67
2022/07/05 07:22:37;;;;;;;4.18;2.38;;;;;;;35.73;26.95;99524.47;5074265;28;20656;-66
2022/07/05 07:25:08;;;;;;;5.50;2.35;;;;;;;35.82;25.85;99522.34;5074424;28;20200;-66
2022/07/05 07:27:42;;;;;;;2.60;1.83;;;;;;;35.99;24.28;99522.72;5074849;28;20191;-66
2022/07/05 07:30:10;;;;;;;4.53;2.17;;;;;;;35.90;25.30;99518.56;5074237;28;20192;-66
2022/07/05 07:32:36;;;;;;;2.25;2.15;;;;;;;35.77;24.58;99520.63;5074118;28;20227;-66
2022/07/05 07:35:03;;;;;;;5.28;2.38;;;;;;;35.85;25.18;99518.84;5074235;28;20265;-66
2022/07/05 07:37:30;;;;;;;6.25;2.28;;;;;;;35.95;25.14;99521.84;5074566;28;20648;-66
2022/07/05 07:40:00;;;;;;;2.78;2.08;;;;;;;35.78;25.43;99518.69;5077115;28;20248;-66
2022/07/05 07:42:27;;;;;;;2.63;1.85;;;;;;;35.72;25.91;99518.13;5094864;28;20234;-66
2022/07/05 07:44:54;;;;;;;3.05;2.20;;;;;;;35.56;24.60;99524.88;5094250;28;20191;-67
2022/07/05 07:47:21;;;;;;;2.58;2.33;;;;;;;35.59;25.18;99524.94;5093817;28;20191;-66
2022/07/05 07:49:48;;;;;;;7.43;2.70;;;;;;;35.82;25.35;99519.56;5094274;28;20624;-66
2022/07/05 07:52:15;;;;;;;2.58;2.17;;;;;;;36.02;25.15;99526.72;5093820;28;20199;-66
2022/07/05 07:54:41;;;;;;;2.72;2.20;;;;;;;35.90;26.26;99524.09;5093812;28;20192;-66
2022/07/05 07:57:10;;;;;;;1.95;1.85;;;;;;;35.92;25.49;99532.81;5093252;28;20183;-68
2022/07/05 07:59:36;;;;;;;3.15;2.05;;;;;;;35.82;26.33;99527.88;5091471;28;20252;-67
2022/07/05 08:02:03;;;;;;;3.88;2.25;;;;;;;35.80;26.48;99521.91;5093760;28;20203;-67
2022/07/05 08:04:30;;;;;;;9.05;2.90;;;;;;;35.74;25.70;99535.19;5092909;28;20264;-66
2022/07/05 08:06:57;;;;;;;2.78;2.47;;;;;;;35.51;26.30;99536.19;5090899;28;20663;-65
2022/07/05 08:09:23;;;;;;;9.40;2.88;;;;;;;35.47;25.58;99532.53;5088631;28;20196;-65
2022/07/05 08:11:50;;;;;;;2.33;1.98;;;;;;;35.39;25.67;99536.34;5075719;28;20192;-65
2022/07/05 08:14:19;;;;;;;4.57;2.20;;;;;;;35.17;25.76;99534.97;5093198;28;20219;-65
2022/07/05 08:16:47;;;;;;;3.13;2.00;;;;;;;35.29;24.42;99539.63;5086140;28;20236;-65
2022/07/05 08:21:58;;;;;;;7.57;4.65;;;;;;;35.28;22.09;99546.31;5093590;28;20321;-65
2022/07/05 08:24:25;;;;;;;2.17;2.08;;;;;;;35.32;24.53;99534.16;5088302;28;20196;-66
2022/07/05 08:26:52;;;;;;;1.80;1.70;;;;;;;35.28;20.53;99538.81;5090922;28;20618;-66
2022/07/05 08:29:20;;;;;;;2.95;1.85;;;;;;;35.34;20.88;99533.81;5093451;28;20248;-67
2022/07/05 08:31:49;;;;;;;3.10;1.50;;;;;;;35.66;19.67;99533.41;5092567;28;20187;-67
2022/07/05 08:34:17;;;;;;;1.38;1.30;;;;;;;35.78;19.45;99538.84;5074017;28;20219;-68
2022/07/05 08:36:44;;;;;;;4.32;1.38;;;;;;;35.79;18.59;99542.41;5074951;28;20195;-68
2022/07/05 08:39:11;;;;;;;4.47;1.50;;;;;;;35.81;19.69;99526.28;5092821;28;20199;-67
2022/07/05 08:41:40;;;;;;;2.08;1.10;;;;;;;35.77;18.45;99526.16;5093011;28;20276;-67
2022/07/05 08:44:08;;;;;;;4.55;1.50;;;;;;;35.69;19.15;99529.91;5093473;28;20199;-66
2022/07/05 08:46:39;;;;;;;1.80;1.38;;;;;;;35.60;18.87;99523.78;5092474;28;20260;-67
2022/07/05 08:49:06;;;;;;;2.42;1.45;;;;;;;35.58;19.67;99506.78;5092465;28;20535;-67
2022/07/05 08:51:37;;;;;;;2.60;1.20;;;;;;;35.64;17.90;99521.13;5091651;28;20573;-67
2022/07/05 08:54:04;;;;;;;2.15;1.13;;;;;;;35.73;17.26;99514.19;5092472;28;20743;-69
2022/07/05 08:56:31;;;;;;;6.28;2.10;;;;;;;35.91;18.02;99509.91;5092562;28;20206;-68
2022/07/05 08:58:58;;;;;;;2.28;1.35;;;;;;;35.70;19.13;99506.66;5100455;28;20259;-69
2022/07/05 09:01:25;;;;;;;3.00;1.20;;;;;;;35.93;17.71;99506.78;5082911;28;20191;-68
2022/07/05 09:03:54;;;;;;;3.78;1.30;;;;;;;35.40;18.60;99502.78;5094368;28;20749;-69
2022/07/05 09:06:23;;;;;;;1.60;1.25;;;;;;;35.15;19.31;99503.34;5094525;28;20452;-68
2022/07/05 09:08:54;;;;;;;2.17;1.40;;;;;;;35.01;19.97;99491.94;5094788;28;20668;-68
2022/07/05 09:11:25;;;;;;;1.67;1.58;;;;;;;35.14;19.38;99490.66;5099465;28;20357;-69
2022/07/05 09:13:52;;;;;;;1.60;1.50;;;;;;;35.54;20.72;99482.97;5113595;28;20274;-68
2022/07/05 09:16:19;;;;;;;2.65;1.48;;;;;;;35.90;20.33;99480.66;5112561;28;20194;-69
2022/07/05 09:18:47;;;;;;;5.07;1.80;;;;;;;35.99;19.90;99478.47;5112772;28;20201;-68
2022/07/05 09:21:20;;;;;;;4.18;1.83;;;;;;;35.81;20.48;99482.03;5112613;28;20658;-69
2022/07/05 09:23:55;;;;;;;2.25;2.13;;;;;;;36.24;20.56;99481.75;5109461;28;20259;-70
2022/07/05 09:26:22;;;;;;;3.45;2.00;;;;;;;36.47;20.10;99480.63;5071965;28;20186;-72
2022/07/05 09:28:57;;;;;;;2.05;1.95;;;;;;;36.22;21.05;99475.78;5072057;28;20278;-69
2022/07/05 09:31:29;;;;;;;6.60;2.03;;;;;;;36.27;21.68;99467.19;5085589;28;20191;-69
2022/07/05 09:34:04;;;;;;;10.43;2.70;;;;;;;36.53;20.79;99470.03;5092431;28;20218;-69
2022/07/05 09:36:48;;;;;;;4.78;2.25;;;;;;;36.75;20.90;99463.75;5091988;28;20179;-70
2022/07/05 09:39:14;;;;;;;4.93;2.10;;;;;;;36.72;20.94;99473.59;5092452;28;20245;-68
2022/07/05 09:41:41;;;;;;;2.15;1.92;;;;;;;36.86;20.92;99461.94;5091848;28;20231;-68
2022/07/05 09:44:08;;;;;;;4.53;2.20;;;;;;;36.96;21.18;99450.25;5092123;28;20206;-70
2022/07/05 09:46:35;;;;;;;3.63;2.55;;;;;;;37.13;21.26;99460.81;5107967;28;20194;-71
2022/07/05 09:49:02;;;;;;;5.38;2.40;;;;;;;37.23;20.97;99460.19;5112714;28;20198;-70
2022/07/05 09:51:28;;;;;;;3.58;2.20;;;;;;;37.57;20.23;99452.75;5099774;28;20206;-70
2022/07/05 09:53:58;;;;;;;3.47;2.75;;;;;;;37.71;20.63;99453.78;5092099;28;20226;-68
2022/07/05 09:56:29;;;;;;;7.65;2.58;;;;;;;37.81;20.42;99453.13;5091979;28;20637;-70
2022/07/05 09:58:56;;;;;;;8.57;2.47;;;;;;;37.81;20.28;99457.88;5092147;28;20192;-68
2022/07/05 10:01:26;;;;;;;2.88;2.42;;;;;;;38.04;20.16;99445.50;5091579;28;20196;-69
2022/07/05 10:03:54;;;;;;;7.78;2.38;;;;;;;38.21;20.33;99436.56;5091914;28;20226;-68
2022/07/05 10:06:21;;;;;;;4.22;2.70;;;;;;;38.28;20.12;99436.66;5091101;28;20238;-69
2022/07/05 10:08:49;;;;;;;3.88;2.50;;;;;;;38.29;19.88;99435.47;5091936;28;20194;-68
2022/07/05 10:11:18;;;;;;;7.68;2.40;;;;;;;38.22;20.77;99440.97;5091468;28;20195;-70
2022/07/05 10:13:46;;;;;;;12.48;2.40;;;;;;;38.18;21.23;99437.34;5091406;28;20305;-70
2022/07/05 10:16:14;;;;;;;3.47;2.42;;;;;;;37.68;22.14;99437.88;5094516;28;20191;-68
2022/07/05 10:18:41;;;;;;;4.50;2.92;;;;;;;37.76;22.12;99428.47;5095690;28;20607;-67
2022/07/05 10:21:15;;;;;;;7.43;2.80;;;;;;;37.68;22.50;99418.47;5095836;28;20260;-67
2022/07/05 10:23:45;;;;;;;5.95;2.70;;;;;;;37.82;21.75;99418.66;5095367;28;20274;-67
2022/07/05 10:26:13;;;;;;;3.83;2.60;;;;;;;37.68;22.32;99432.34;5074667;28;20207;-68
2022/07/05 10:28:42;;;;;;;3.80;2.60;;;;;;;37.32;21.96;99435.78;5074755;28;20763;-68
2022/07/05 10:31:09;;;;;;;3.85;2.55;;;;;;;37.42;21.58;99424.03;5075490;28;20564;-68
2022/07/05 10:33:37;;;;;;;2.20;2.10;;;;;;;37.67;21.83;99433.53;5075021;28;20770;-68
2022/07/05 10:36:05;;;;;;;3.30;2.42;;;;;;;37.74;22.05;99416.97;5075379;28;20226;-68
2022/07/05 10:38:37;;;;;;;3.95;2.05;;;;;;;37.63;21.53;99418.81;5075102;28;20735;-68
2022/07/05 10:41:06;;;;;;;2.80;2.60;;;;;;;37.61;21.73;99421.19;5087073;28;20728;-68
2022/07/05 10:43:33;;;;;;;2.47;2.30;;;;;;;37.36;21.45;99408.94;5094474;28;20666;-68
2022/07/05 10:46:02;;;;;;;2.63;2.42;;;;;;;37.38;21.63;99417.66;5105728;28;20251;-69
2022/07/05 10:48:30;;;;;;;3.17;2.47;;;;;;;37.27;22.13;99408.38;5114795;28;20739;-68
2022/07/05 10:50:58;;;;;;;5.60;3.10;;;;;;;37.06;23.21;99396.97;5107288;28;20210;-68
2022/07/05 10:53:26;;;;;;;4.05;2.50;;;;;;;36.63;23.36;99392.69;5094666;28;20198;-68
2022/07/05 10:55:58;;;;;;;3.15;2.58;;;;;;;35.70;24.82;99384.19;5095358;28;20195;-68
2022/07/05 10:58:33;;;;;;;3.95;2.35;;;;;;;36.01;24.89;99386.81;5094778;28;20188;-67
2022/07/05 11:01:35;;;;;;;2.50;2.30;;;;;;;36.50;23.88;99382.22;5094860;28;20257;-67
2022/07/05 11:04:22;;;;;;;6.95;3.15;;;;;;;36.19;25.42;99385.97;5094642;28;20187;-68
2022/07/05 11:06:49;;;;;;;2.88;2.60;;;;;;;36.38;24.50;99380.41;5094566;28;20268;-67
2022/07/05 11:09:20;;;;;;;4.88;2.88;;;;;;;36.62;24.59;99385.56;5094682;28;20198;-67
2022/07/05 11:12:01;;;;;;;4.40;2.75;;;;;;;36.78;24.46;99382.69;5095554;28;20186;-67
2022/07/05 11:14:37;;;;;;;5.60;2.67;;;;;;;36.74;24.39;99374.31;5094581;28;20625;-67
2022/07/05 11:17:26;;;;;;;4.22;2.70;;;;;;;36.66;24.53;99369.81;5094253;28;20225;-68
2022/07/05 11:20:26;;;;;;;2.97;2.72;;;;;;;36.37;24.76;99367.75;5094528;28;20274;-68
2022/07/05 11:23:07;;;;;;;3.40;2.45;;;;;;;36.49;25.24;99363.97;5094795;28;20183;-67
2022/07/05 11:25:35;;;;;;;7.97;3.35;;;;;;;36.40;25.24;99366.19;5077724;28;20192;-68
2022/07/05 11:28:08;;;;;;;7.65;2.72;;;;;;;36.14;26.16;99363.34;5073523;28;20200;-67
2022/07/05 11:30:55;;;;;;;6.20;3.10;;;;;;;36.18;26.14;99355.91;5074129;28;20265;-67
2022/07/05 11:33:34;;;;;;;3.45;3.28;;;;;;;36.25;26.06;99353.31;5073629;28;20670;-70
2022/07/05 11:36:03;;;;;;;5.43;3.15;;;;;;;35.95;26.33;99338.50;5075729;28;20710;-67
2022/07/05 11:38:31;;;;;;;4.80;3.20;;;;;;;35.99;26.36;99339.34;5093510;28;20740;-68
2022/07/05 11:41:12;;;;;;;4.28;3.90;;;;;;;35.94;26.56;99325.84;5092916;28;20258;-69
2022/07/05 11:43:38;;;;;;;4.95;3.63;;;;;;;36.16;26.40;99330.56;5091945;28;20607;-69